Portada
METAR-TAF:

METAR-TAF

Aeroports :

Curaçao, Antilles Neerlandeses

latitud: 12-12N, longitud: 068-58W, altitud: 9 m

Observació

L'informe es va fer fa 36 minuts, a les 16:00 UTC
Vent 12 kt del Est
Temperatura 30°C
Humitat 66%
Pressió 1015 hPa
Visibilitat 10 km o més
Cel ennuvolat a una alçada de 2500 ft
xàfecs de pluja

METAR: TNCC 181600Z 10012KT 9999 -SHRA BKN025 30/23 Q1015 NOSIG

Hora: 12:36 (16:36 UTC)

Pronòstic

L'informe es va fer fa 17 hores i 21 minuts, a les 23:15 UTC
Pronòstic vàlid del 18 a les 00 UTC al 18 a les 24 UTC
Vent 12 kt del Est
Visibilitat 10 km o més
Núvols disperses a una alçada de 2000 ft
Temporalment
l' 18 a les 10 UTC al 18 a les 15 UTC
Cel ennuvolat a una alçada de 1400 ft

TAF: TNCC 172315Z 1800/1824 10012KT 9999 SCT020 TEMPO 1810/1815 BKN014

Observacions i pronòstics meteorològics de més de 4000 aeroports (METAR i TAF).

Les estacions disponibles són els punts grocs i vermells al mapa.

Posi el ratolí al punt desitjat per veure el nom de l'estació.

Feu clic per veure les observacions i els pronòstics meteorològics.

Per canviar el mapa: feu clic els botons verds amb una creu de color negre per apropar; al botó verd amb un guió per allunyar la imatge; o en les fletxes verdes per a mapes adjacents.


METAR-TAF: